sensor_id;sensor_type;location;lat;lon;timestamp;temperature;humidity
18712;DHT22;9485;49.386;8.674;2023-04-15T00:01:20;10.00;78.70
18712;DHT22;9485;49.386;8.674;2023-04-15T00:06:42;9.90;78.90
18712;DHT22;9485;49.386;8.674;2023-04-15T00:12:03;9.80;79.00
18712;DHT22;9485;49.386;8.674;2023-04-15T00:17:24;9.70;79.30
18712;DHT22;9485;49.386;8.674;2023-04-15T00:22:46;9.70;79.50
18712;DHT22;9485;49.386;8.674;2023-04-15T00:28:07;9.60;79.20
18712;DHT22;9485;49.386;8.674;2023-04-15T00:33:28;9.50;79.30
18712;DHT22;9485;49.386;8.674;2023-04-15T00:38:49;9.40;79.80
18712;DHT22;9485;49.386;8.674;2023-04-15T00:44:10;9.40;80.00
18712;DHT22;9485;49.386;8.674;2023-04-15T00:49:30;9.30;80.00
18712;DHT22;9485;49.386;8.674;2023-04-15T00:54:52;9.20;80.10
18712;DHT22;9485;49.386;8.674;2023-04-15T01:00:19;9.10;80.40
18712;DHT22;9485;49.386;8.674;2023-04-15T01:05:41;9.10;80.50
18712;DHT22;9485;49.386;8.674;2023-04-15T01:11:02;9.00;80.30
18712;DHT22;9485;49.386;8.674;2023-04-15T01:16:23;8.90;80.60
18712;DHT22;9485;49.386;8.674;2023-04-15T01:21:45;8.80;80.90
18712;DHT22;9485;49.386;8.674;2023-04-15T01:27:07;8.80;81.10
18712;DHT22;9485;49.386;8.674;2023-04-15T01:32:28;8.70;81.20
18712;DHT22;9485;49.386;8.674;2023-04-15T01:37:49;8.60;81.40
18712;DHT22;9485;49.386;8.674;2023-04-15T01:43:12;8.60;81.50
18712;DHT22;9485;49.386;8.674;2023-04-15T01:48:34;8.60;81.80
18712;DHT22;9485;49.386;8.674;2023-04-15T01:53:56;8.50;82.00
18712;DHT22;9485;49.386;8.674;2023-04-15T01:59:17;8.50;82.20
18712;DHT22;9485;49.386;8.674;2023-04-15T02:04:38;8.50;82.40
18712;DHT22;9485;49.386;8.674;2023-04-15T02:09:59;8.40;82.10
18712;DHT22;9485;49.386;8.674;2023-04-15T02:15:21;8.40;82.40
18712;DHT22;9485;49.386;8.674;2023-04-15T02:20:43;8.40;82.70
18712;DHT22;9485;49.386;8.674;2023-04-15T02:26:05;8.30;82.90
18712;DHT22;9485;49.386;8.674;2023-04-15T02:31:27;8.30;82.90
18712;DHT22;9485;49.386;8.674;2023-04-15T02:36:48;8.30;82.80
18712;DHT22;9485;49.386;8.674;2023-04-15T02:42:13;8.20;82.50
18712;DHT22;9485;49.386;8.674;2023-04-15T02:47:35;8.10;82.70
18712;DHT22;9485;49.386;8.674;2023-04-15T02:52:57;8.00;82.80
18712;DHT22;9485;49.386;8.674;2023-04-15T02:58:19;8.00;83.10
18712;DHT22;9485;49.386;8.674;2023-04-15T03:03:41;8.00;83.30
18712;DHT22;9485;49.386;8.674;2023-04-15T03:09:02;7.90;83.50
18712;DHT22;9485;49.386;8.674;2023-04-15T03:14:26;7.90;83.70
18712;DHT22;9485;49.386;8.674;2023-04-15T03:19:48;7.90;83.90
18712;DHT22;9485;49.386;8.674;2023-04-15T03:25:09;7.90;84.10
18712;DHT22;9485;49.386;8.674;2023-04-15T03:30:30;7.90;84.10
18712;DHT22;9485;49.386;8.674;2023-04-15T03:35:52;7.90;84.10
18712;DHT22;9485;49.386;8.674;2023-04-15T03:41:13;7.80;84.20
18712;DHT22;9485;49.386;8.674;2023-04-15T03:46:34;7.80;84.30
18712;DHT22;9485;49.386;8.674;2023-04-15T03:51:56;7.80;84.30
18712;DHT22;9485;49.386;8.674;2023-04-15T03:57:16;7.80;84.60
18712;DHT22;9485;49.386;8.674;2023-04-15T04:02:37;7.80;84.80
18712;DHT22;9485;49.386;8.674;2023-04-15T04:07:59;7.70;84.70
18712;DHT22;9485;49.386;8.674;2023-04-15T04:13:19;7.70;84.90
18712;DHT22;9485;49.386;8.674;2023-04-15T04:18:40;7.70;85.20
18712;DHT22;9485;49.386;8.674;2023-04-15T04:24:02;7.70;85.30
18712;DHT22;9485;49.386;8.674;2023-04-15T04:29:22;7.70;85.40
18712;DHT22;9485;49.386;8.674;2023-04-15T04:34:43;7.70;85.40
18712;DHT22;9485;49.386;8.674;2023-04-15T04:40:06;7.70;85.40
18712;DHT22;9485;49.386;8.674;2023-04-15T04:45:28;7.70;85.50
18712;DHT22;9485;49.386;8.674;2023-04-15T04:50:49;7.70;85.60
18712;DHT22;9485;49.386;8.674;2023-04-15T04:56:11;7.70;85.50
18712;DHT22;9485;49.386;8.674;2023-04-15T05:01:32;7.60;85.50
18712;DHT22;9485;49.386;8.674;2023-04-15T05:06:53;7.60;85.80
18712;DHT22;9485;49.386;8.674;2023-04-15T05:12:16;7.60;85.90
18712;DHT22;9485;49.386;8.674;2023-04-15T05:17:37;7.60;85.90
18712;DHT22;9485;49.386;8.674;2023-04-15T05:22:57;7.70;86.00
18712;DHT22;9485;49.386;8.674;2023-04-15T05:28:19;7.70;86.00
18712;DHT22;9485;49.386;8.674;2023-04-15T05:33:40;7.70;85.80
18712;DHT22;9485;49.386;8.674;2023-04-15T05:39:01;7.70;85.90
18712;DHT22;9485;49.386;8.674;2023-04-15T05:44:24;7.70;86.00
18712;DHT22;9485;49.386;8.674;2023-04-15T05:49:45;7.70;86.10
18712;DHT22;9485;49.386;8.674;2023-04-15T05:55:06;7.70;86.50
18712;DHT22;9485;49.386;8.674;2023-04-15T06:00:28;7.70;86.90
18712;DHT22;9485;49.386;8.674;2023-04-15T06:05:49;7.80;87.20
18712;DHT22;9485;49.386;8.674;2023-04-15T06:11:09;7.90;87.50
18712;DHT22;9485;49.386;8.674;2023-04-15T06:16:32;8.10;87.90
18712;DHT22;9485;49.386;8.674;2023-04-15T06:21:55;8.30;88.20
18712;DHT22;9485;49.386;8.674;2023-04-15T06:27:16;8.40;88.50
18712;DHT22;9485;49.386;8.674;2023-04-15T06:32:38;8.70;88.80
18712;DHT22;9485;49.386;8.674;2023-04-15T06:37:59;9.00;89.50
18712;DHT22;9485;49.386;8.674;2023-04-15T06:43:20;9.30;89.80
18712;DHT22;9485;49.386;8.674;2023-04-15T06:48:43;9.70;89.70
18712;DHT22;9485;49.386;8.674;2023-04-15T06:54:03;10.00;89.70
18712;DHT22;9485;49.386;8.674;2023-04-15T06:59:25;10.40;90.20
18712;DHT22;9485;49.386;8.674;2023-04-15T07:04:49;11.10;90.50
18712;DHT22;9485;49.386;8.674;2023-04-15T07:10:11;11.90;90.60
18712;DHT22;9485;49.386;8.674;2023-04-15T07:15:33;12.60;90.50
18712;DHT22;9485;49.386;8.674;2023-04-15T07:20:55;13.40;89.90
18712;DHT22;9485;49.386;8.674;2023-04-15T07:26:16;13.90;88.20
18712;DHT22;9485;49.386;8.674;2023-04-15T07:31:38;14.40;88.30
18712;DHT22;9485;49.386;8.674;2023-04-15T07:37:01;14.90;87.60
18712;DHT22;9485;49.386;8.674;2023-04-15T07:42:23;15.30;86.80
18712;DHT22;9485;49.386;8.674;2023-04-15T07:47:44;15.80;86.20
18712;DHT22;9485;49.386;8.674;2023-04-15T07:53:06;16.00;84.70
18712;DHT22;9485;49.386;8.674;2023-04-15T07:58:27;16.10;82.70
18712;DHT22;9485;49.386;8.674;2023-04-15T08:03:48;16.10;82.70
18712;DHT22;9485;49.386;8.674;2023-04-15T08:09:10;16.00;83.40
18712;DHT22;9485;49.386;8.674;2023-04-15T08:14:30;16.20;84.20
18712;DHT22;9485;49.386;8.674;2023-04-15T08:19:51;16.90;86.80
18712;DHT22;9485;49.386;8.674;2023-04-15T08:25:13;17.90;87.30
18712;DHT22;9485;49.386;8.674;2023-04-15T08:30:33;18.80;85.70
18712;DHT22;9485;49.386;8.674;2023-04-15T08:35:54;19.70;84.20
18712;DHT22;9485;49.386;8.674;2023-04-15T08:41:20;20.40;82.10
18712;DHT22;9485;49.386;8.674;2023-04-15T08:46:42;21.00;78.10
18712;DHT22;9485;49.386;8.674;2023-04-15T08:52:03;21.50;79.20
18712;DHT22;9485;49.386;8.674;2023-04-15T08:57:27;22.00;77.10
18712;DHT22;9485;49.386;8.674;2023-04-15T09:02:48;22.50;75.40
18712;DHT22;9485;49.386;8.674;2023-04-15T09:08:09;22.90;75.80
18712;DHT22;9485;49.386;8.674;2023-04-15T09:13:31;23.30;74.30
18712;DHT22;9485;49.386;8.674;2023-04-15T09:18:51;23.60;72.10
18712;DHT22;9485;49.386;8.674;2023-04-15T09:24:12;23.80;71.60
18712;DHT22;9485;49.386;8.674;2023-04-15T09:29:35;24.00;70.60
18712;DHT22;9485;49.386;8.674;2023-04-15T09:34:56;23.90;68.10
18712;DHT22;9485;49.386;8.674;2023-04-15T09:40:30;23.60;67.80
18712;DHT22;9485;49.386;8.674;2023-04-15T09:45:53;23.10;63.90
18712;DHT22;9485;49.386;8.674;2023-04-15T09:51:15;22.60;67.50
18712;DHT22;9485;49.386;8.674;2023-04-15T09:56:37;22.30;68.20
18712;DHT22;9485;49.386;8.674;2023-04-15T10:02:04;22.10;69.30
18712;DHT22;9485;49.386;8.674;2023-04-15T10:07:27;21.90;69.50
18712;DHT22;9485;49.386;8.674;2023-04-15T10:12:50;22.30;69.90
18712;DHT22;9485;49.386;8.674;2023-04-15T10:18:16;22.50;69.20
18712;DHT22;9485;49.386;8.674;2023-04-15T10:23:40;22.60;66.60
18712;DHT22;9485;49.386;8.674;2023-04-15T10:29:02;22.50;66.50
18712;DHT22;9485;49.386;8.674;2023-04-15T10:34:25;22.30;65.80
18712;DHT22;9485;49.386;8.674;2023-04-15T10:39:50;22.10;67.60
18712;DHT22;9485;49.386;8.674;2023-04-15T10:45:15;22.30;69.40
18712;DHT22;9485;49.386;8.674;2023-04-15T10:50:41;22.70;66.00
18712;DHT22;9485;49.386;8.674;2023-04-15T10:56:16;22.80;65.70
18712;DHT22;9485;49.386;8.674;2023-04-15T11:01:50;22.60;66.40
18712;DHT22;9485;49.386;8.674;2023-04-15T11:07:14;22.40;61.20
18712;DHT22;9485;49.386;8.674;2023-04-15T11:12:35;22.20;63.00
18712;DHT22;9485;49.386;8.674;2023-04-15T11:17:59;22.20;63.50
18712;DHT22;9485;49.386;8.674;2023-04-15T11:23:32;22.40;64.90
18712;DHT22;9485;49.386;8.674;2023-04-15T11:28:55;22.50;63.60
18712;DHT22;9485;49.386;8.674;2023-04-15T11:34:21;22.40;63.90
18712;DHT22;9485;49.386;8.674;2023-04-15T11:39:43;22.10;60.60
18712;DHT22;9485;49.386;8.674;2023-04-15T11:45:09;21.70;61.80
18712;DHT22;9485;49.386;8.674;2023-04-15T11:50:31;21.20;61.60
18712;DHT22;9485;49.386;8.674;2023-04-15T11:55:53;20.80;61.60
18712;DHT22;9485;49.386;8.674;2023-04-15T12:01:14;20.40;61.60
18712;DHT22;9485;49.386;8.674;2023-04-15T12:06:37;20.00;63.70
18712;DHT22;9485;49.386;8.674;2023-04-15T12:12:00;19.70;63.60
18712;DHT22;9485;49.386;8.674;2023-04-15T12:17:22;19.60;65.10
18712;DHT22;9485;49.386;8.674;2023-04-15T12:22:43;19.60;65.10
18712;DHT22;9485;49.386;8.674;2023-04-15T12:28:11;19.80;66.20
18712;DHT22;9485;49.386;8.674;2023-04-15T12:33:33;19.80;63.40
18712;DHT22;9485;49.386;8.674;2023-04-15T12:38:56;19.80;65.80
18712;DHT22;9485;49.386;8.674;2023-04-15T12:44:18;19.70;63.70
18712;DHT22;9485;49.386;8.674;2023-04-15T12:49:39;19.50;64.60
18712;DHT22;9485;49.386;8.674;2023-04-15T12:55:00;19.40;65.40
18712;DHT22;9485;49.386;8.674;2023-04-15T13:00:22;19.20;64.60
18712;DHT22;9485;49.386;8.674;2023-04-15T13:05:43;18.90;65.20
18712;DHT22;9485;49.386;8.674;2023-04-15T13:11:05;18.80;65.90
18712;DHT22;9485;49.386;8.674;2023-04-15T13:16:27;18.60;65.90
18712;DHT22;9485;49.386;8.674;2023-04-15T13:21:50;18.50;66.30
18712;DHT22;9485;49.386;8.674;2023-04-15T13:27:11;18.40;64.30
18712;DHT22;9485;49.386;8.674;2023-04-15T13:32:34;18.30;62.70
18712;DHT22;9485;49.386;8.674;2023-04-15T13:37:54;18.10;62.60
18712;DHT22;9485;49.386;8.674;2023-04-15T13:43:16;18.00;63.80
18712;DHT22;9485;49.386;8.674;2023-04-15T13:48:38;17.90;62.20
18712;DHT22;9485;49.386;8.674;2023-04-15T13:53:58;17.80;63.40
18712;DHT22;9485;49.386;8.674;2023-04-15T13:59:19;17.80;64.60
18712;DHT22;9485;49.386;8.674;2023-04-15T14:04:42;17.80;64.00
18712;DHT22;9485;49.386;8.674;2023-04-15T14:10:04;17.60;65.20
18712;DHT22;9485;49.386;8.674;2023-04-15T14:15:28;17.70;66.60
18712;DHT22;9485;49.386;8.674;2023-04-15T14:20:52;17.70;67.10
18712;DHT22;9485;49.386;8.674;2023-04-15T14:26:13;17.90;66.50
18712;DHT22;9485;49.386;8.674;2023-04-15T14:31:34;18.00;66.40
18712;DHT22;9485;49.386;8.674;2023-04-15T14:36:57;18.10;65.30
18712;DHT22;9485;49.386;8.674;2023-04-15T14:42:18;18.10;66.10
18712;DHT22;9485;49.386;8.674;2023-04-15T14:47:39;18.00;66.70
18712;DHT22;9485;49.386;8.674;2023-04-15T14:53:02;18.00;67.20
18712;DHT22;9485;49.386;8.674;2023-04-15T14:58:24;17.90;66.80
18712;DHT22;9485;49.386;8.674;2023-04-15T15:03:44;17.70;66.80
18712;DHT22;9485;49.386;8.674;2023-04-15T15:09:07;17.60;65.90
18712;DHT22;9485;49.386;8.674;2023-04-15T15:14:28;17.30;66.60
18712;DHT22;9485;49.386;8.674;2023-04-15T15:19:49;17.20;66.60
18712;DHT22;9485;49.386;8.674;2023-04-15T15:25:14;17.00;67.50
18712;DHT22;9485;49.386;8.674;2023-04-15T15:30:35;16.80;67.60
18712;DHT22;9485;49.386;8.674;2023-04-15T15:35:56;16.50;67.20
18712;DHT22;9485;49.386;8.674;2023-04-15T15:41:18;16.30;68.70
18712;DHT22;9485;49.386;8.674;2023-04-15T15:46:40;16.00;68.80
18712;DHT22;9485;49.386;8.674;2023-04-15T15:52:01;15.80;70.40
18712;DHT22;9485;49.386;8.674;2023-04-15T15:57:23;15.60;71.30
18712;DHT22;9485;49.386;8.674;2023-04-15T16:02:45;15.50;71.90
18712;DHT22;9485;49.386;8.674;2023-04-15T16:08:06;15.30;72.40
18712;DHT22;9485;49.386;8.674;2023-04-15T16:13:30;15.20;72.90
18712;DHT22;9485;49.386;8.674;2023-04-15T16:18:50;15.10;73.30
18712;DHT22;9485;49.386;8.674;2023-04-15T16:24:11;14.90;73.30
18712;DHT22;9485;49.386;8.674;2023-04-15T16:29:33;14.80;74.00
18712;DHT22;9485;49.386;8.674;2023-04-15T16:34:55;14.70;75.00
18712;DHT22;9485;49.386;8.674;2023-04-15T16:40:16;14.70;75.50
18712;DHT22;9485;49.386;8.674;2023-04-15T16:45:38;14.60;76.50
18712;DHT22;9485;49.386;8.674;2023-04-15T16:50:59;14.60;76.30
18712;DHT22;9485;49.386;8.674;2023-04-15T16:56:19;14.50;76.50
18712;DHT22;9485;49.386;8.674;2023-04-15T17:01:42;14.40;76.80
18712;DHT22;9485;49.386;8.674;2023-04-15T17:07:03;14.40;77.30
18712;DHT22;9485;49.386;8.674;2023-04-15T17:12:24;14.20;77.70
18712;DHT22;9485;49.386;8.674;2023-04-15T17:17:47;14.10;78.20
18712;DHT22;9485;49.386;8.674;2023-04-15T17:23:09;14.00;78.40
18712;DHT22;9485;49.386;8.674;2023-04-15T17:28:32;13.90;78.40
18712;DHT22;9485;49.386;8.674;2023-04-15T17:33:54;13.70;79.20
18712;DHT22;9485;49.386;8.674;2023-04-15T17:39:16;13.60;79.80
18712;DHT22;9485;49.386;8.674;2023-04-15T17:44:37;13.50;80.30
18712;DHT22;9485;49.386;8.674;2023-04-15T17:50:00;13.50;81.00
18712;DHT22;9485;49.386;8.674;2023-04-15T17:55:21;13.40;81.60
18712;DHT22;9485;49.386;8.674;2023-04-15T18:00:42;13.30;81.90
18712;DHT22;9485;49.386;8.674;2023-04-15T18:06:05;13.30;82.30
18712;DHT22;9485;49.386;8.674;2023-04-15T18:11:25;13.20;82.60
18712;DHT22;9485;49.386;8.674;2023-04-15T18:16:46;13.20;83.20
18712;DHT22;9485;49.386;8.674;2023-04-15T18:22:08;13.20;83.50
18712;DHT22;9485;49.386;8.674;2023-04-15T18:27:30;13.10;83.80
18712;DHT22;9485;49.386;8.674;2023-04-15T18:32:51;13.00;83.90
18712;DHT22;9485;49.386;8.674;2023-04-15T18:38:13;12.90;84.00
18712;DHT22;9485;49.386;8.674;2023-04-15T18:43:33;12.90;84.50
18712;DHT22;9485;49.386;8.674;2023-04-15T18:48:54;12.80;84.80
18712;DHT22;9485;49.386;8.674;2023-04-15T18:54:16;12.80;85.20
18712;DHT22;9485;49.386;8.674;2023-04-15T18:59:36;12.80;85.60
18712;DHT22;9485;49.386;8.674;2023-04-15T19:04:57;12.70;85.90
18712;DHT22;9485;49.386;8.674;2023-04-15T19:10:21;12.70;86.20
18712;DHT22;9485;49.386;8.674;2023-04-15T19:15:42;12.70;86.50
18712;DHT22;9485;49.386;8.674;2023-04-15T19:21:02;12.60;86.60
18712;DHT22;9485;49.386;8.674;2023-04-15T19:26:24;12.60;86.90
18712;DHT22;9485;49.386;8.674;2023-04-15T19:31:45;12.50;87.00
18712;DHT22;9485;49.386;8.674;2023-04-15T19:37:06;12.50;87.30
18712;DHT22;9485;49.386;8.674;2023-04-15T19:42:28;12.50;87.70
18712;DHT22;9485;49.386;8.674;2023-04-15T19:47:48;12.50;88.10
18712;DHT22;9485;49.386;8.674;2023-04-15T19:53:09;12.50;88.50
18712;DHT22;9485;49.386;8.674;2023-04-15T19:58:31;12.50;88.80
18712;DHT22;9485;49.386;8.674;2023-04-15T20:03:52;12.50;88.90
18712;DHT22;9485;49.386;8.674;2023-04-15T20:09:13;12.50;89.00
18712;DHT22;9485;49.386;8.674;2023-04-15T20:14:35;12.50;89.10
18712;DHT22;9485;49.386;8.674;2023-04-15T20:19:55;12.50;89.20
18712;DHT22;9485;49.386;8.674;2023-04-15T20:25:16;12.50;89.40
18712;DHT22;9485;49.386;8.674;2023-04-15T20:30:38;12.50;89.60
18712;DHT22;9485;49.386;8.674;2023-04-15T20:35:59;12.50;89.90
18712;DHT22;9485;49.386;8.674;2023-04-15T20:41:20;12.50;90.00
18712;DHT22;9485;49.386;8.674;2023-04-15T20:46:42;12.50;90.10
18712;DHT22;9485;49.386;8.674;2023-04-15T20:52:03;12.50;90.20
18712;DHT22;9485;49.386;8.674;2023-04-15T20:57:25;12.50;90.20
18712;DHT22;9485;49.386;8.674;2023-04-15T21:02:50;12.50;90.30
18712;DHT22;9485;49.386;8.674;2023-04-15T21:08:10;12.50;90.30
18712;DHT22;9485;49.386;8.674;2023-04-15T21:13:31;12.50;90.40
18712;DHT22;9485;49.386;8.674;2023-04-15T21:18:53;12.50;90.50
18712;DHT22;9485;49.386;8.674;2023-04-15T21:24:13;12.50;90.60
18712;DHT22;9485;49.386;8.674;2023-04-15T21:29:34;12.40;90.70
18712;DHT22;9485;49.386;8.674;2023-04-15T21:34:56;12.50;90.80
18712;DHT22;9485;49.386;8.674;2023-04-15T21:40:16;12.50;90.90
18712;DHT22;9485;49.386;8.674;2023-04-15T21:45:37;12.50;91.00
18712;DHT22;9485;49.386;8.674;2023-04-15T21:51:00;12.60;91.10
18712;DHT22;9485;49.386;8.674;2023-04-15T21:56:21;12.50;91.10
18712;DHT22;9485;49.386;8.674;2023-04-15T22:01:43;12.60;91.10
18712;DHT22;9485;49.386;8.674;2023-04-15T22:07:04;12.60;91.20
18712;DHT22;9485;49.386;8.674;2023-04-15T22:12:25;12.60;91.20
18712;DHT22;9485;49.386;8.674;2023-04-15T22:17:47;12.60;91.20
18712;DHT22;9485;49.386;8.674;2023-04-15T22:23:09;12.60;91.30
18712;DHT22;9485;49.386;8.674;2023-04-15T22:28:30;12.60;91.30
18712;DHT22;9485;49.386;8.674;2023-04-15T22:33:51;12.60;91.30
18712;DHT22;9485;49.386;8.674;2023-04-15T22:39:13;12.50;91.30
18712;DHT22;9485;49.386;8.674;2023-04-15T22:44:33;12.60;91.40
18712;DHT22;9485;49.386;8.674;2023-04-15T22:49:54;12.60;91.50
18712;DHT22;9485;49.386;8.674;2023-04-15T22:55:16;12.50;91.50
18712;DHT22;9485;49.386;8.674;2023-04-15T23:00:36;12.50;91.50
18712;DHT22;9485;49.386;8.674;2023-04-15T23:05:57;12.50;91.50
18712;DHT22;9485;49.386;8.674;2023-04-15T23:11:19;12.50;91.50
18712;DHT22;9485;49.386;8.674;2023-04-15T23:16:40;12.40;91.50
18712;DHT22;9485;49.386;8.674;2023-04-15T23:22:00;12.40;91.60
18712;DHT22;9485;49.386;8.674;2023-04-15T23:27:22;12.40;91.60
18712;DHT22;9485;49.386;8.674;2023-04-15T23:32:42;12.30;91.60
18712;DHT22;9485;49.386;8.674;2023-04-15T23:38:03;12.30;91.60
18712;DHT22;9485;49.386;8.674;2023-04-15T23:43:25;12.20;91.70
18712;DHT22;9485;49.386;8.674;2023-04-15T23:48:45;12.20;91.70
18712;DHT22;9485;49.386;8.674;2023-04-15T23:54:07;12.20;91.90
18712;DHT22;9485;49.386;8.674;2023-04-15T23:59:29;12.20;91.90
